Pineville, KY (40977)

2:25 PM EDT on August 29, 2014 (GMT -0400)
Colmar | Change Station
CLOSE
Current Station
Personal Weather Station
Location: Middlesboro, KY
Elevation: 1135 ft
Nearby Weather Stations

Elev 1135 ft 36.66 °N, 83.67 °W | Updated 12 minutes ago

Clear
Clear
89.3 °F
Feels Like 104 °F
N
2.0
Wind Variable Wind from SW

Today
High -- | Low -- °F
--% Chance of Precip.
Yesterday
High -- | Low -- °F
Precip. -- in
7:03 AM 8:07 PM
Waxing Crescent, 15% visible
Pressure 30.09 in
Visibility 10.0 miles
Clouds Clear
Heat Index 104 °F
Dew Point 78 °F
Humidity 70%
Rainfall 0.00 in
Snow Depth Not available.
UV 10 out of 12
Pollen 9.90 out of 12
Air Quality Not available.
Flu Activity Not available.
METAR K1A6 291815Z AUTO 15006KT 10SM CLR 32/21 A3009 RMK AO2 T03180209

More Conditions Fewer Conditions

Pressure 30.09 in
Visibility 10.0 miles
Clouds Clear
Heat Index 104 °F
Dew Point 78 °F
Humidity 70%
Rainfall 0.00 in
Snow Depth Not available.
UV 10 out of 12
Pollen 9.90 out of 12
Air Quality Not available.
Flu Activity Not available.
METAR K1A6 291815Z AUTO 15006KT 10SM CLR 32/21 A3009 RMK AO2 T03180209

More Conditions Fewer Conditions

10-Day Weather Forecast

Almanac

Astronomy

Aug. 29, 2014 Rise Set
Actual Time 7:03 AM EDT 8:07 PM EDT
Civil Twilight 6:36 AM EDT 8:34 PM EDT
Nautical Twilight 6:05 AM EDT 9:05 PM EDT
Astronomical Twilight 5:32 AM EDT 9:38 PM EDT
Moon 10:45 AM EDT 10:11 PM EDT
Length of Visible Light 13h 57m
Length of Day
13h 03m
Tomorrow will be 2m 14s shorter.
Waxing Crescent, 15% of the Moon is Illuminated
Today
Waxing Crescent
Sep 2
First Quarter
Sep 8
Full
Sep 15
Last Quarter
Sep 24
New

Today's Extremes

State Highs State Lows

Community

WunderPhotos

Upload Photos

1,748,310 photos uploaded!

Nearby

Snow Depth

Station Depth Elevation
No new snow has been reported.

Earthquake Activity

City Distance Mag. Time & Date
No recent earthquake activity has been reported nearby.
Minimum magnitude displayed is 2.5.

Coastal Water Temperatures

Place Temperature
No Stations Reporting

Nearby Weather Stations